Aviation Digital Data Service (ADDS)

Output produced by METARs form (2347 UTC 03 June 2015)
found at http://aviationweather.gov/adds/metars/
 
KLAN 032340Z 0400/0424 16004KT P6SM SCT050 
     FM041500 21008KT P6SM SCT050